createdAt,value
2023-03-24T00:02:13.707Z,9.71
2023-03-24T00:07:16.308Z,9.53
2023-03-24T00:12:18.581Z,9.38
2023-03-24T00:17:25.391Z,9.55
2023-03-24T00:22:28.437Z,9.92
2023-03-24T00:27:31.264Z,10.21
2023-03-24T00:32:33.248Z,10.63
2023-03-24T00:37:39.436Z,10.93
2023-03-24T00:42:41.653Z,11.46
2023-03-24T00:47:44.916Z,11.85
2023-03-24T00:52:48.980Z,12.14
2023-03-24T00:57:51.448Z,12.06
2023-03-24T01:02:57.185Z,11.79
2023-03-24T01:08:03.135Z,11.50
2023-03-24T01:13:05.559Z,11.24
2023-03-24T01:18:09.828Z,11.09
2023-03-24T01:23:17.508Z,11.11
2023-03-24T01:28:25.074Z,11.42
2023-03-24T01:33:27.073Z,11.59
2023-03-24T01:38:29.207Z,11.48
2023-03-24T01:43:33.429Z,11.50
2023-03-24T01:48:35.403Z,11.62
2023-03-24T01:53:40.567Z,11.65
2023-03-24T01:58:47.678Z,11.65
2023-03-24T02:03:59.171Z,11.87
2023-03-24T02:09:02.709Z,12.04
2023-03-24T02:14:07.211Z,12.09
2023-03-24T02:19:44.826Z,12.36
2023-03-24T02:25:02.029Z,12.37
2023-03-24T02:30:31.907Z,12.35
2023-03-24T02:35:48.832Z,12.38
2023-03-24T02:41:14.844Z,12.33
2023-03-24T02:46:27.045Z,11.76
2023-03-24T02:51:45.367Z,11.47
2023-03-24T02:57:07.345Z,11.16
2023-03-24T03:02:35.901Z,10.97
2023-03-24T03:07:38.467Z,10.87
2023-03-24T03:12:41.304Z,10.69
2023-03-24T03:17:53.295Z,10.65
2023-03-24T03:23:07.218Z,10.43
2023-03-24T03:28:13.005Z,10.37
2023-03-24T03:33:31.206Z,10.55
2023-03-24T03:39:03.961Z,10.39
2023-03-24T03:44:07.277Z,10.42
2023-03-24T03:49:09.944Z,10.41
2023-03-24T03:54:14.711Z,10.34
2023-03-24T03:59:33.987Z,10.11
2023-03-24T04:04:53.277Z,10.16
2023-03-24T04:10:31.106Z,10.08
2023-03-24T04:16:04.131Z,9.94
2023-03-24T04:21:48.751Z,10.23
2023-03-24T04:27:01.163Z,10.26
2023-03-24T04:32:14.616Z,10.89
2023-03-24T04:37:23.006Z,11.24
2023-03-24T04:42:52.926Z,11.36
2023-03-24T04:48:01.296Z,11.42
2023-03-24T04:53:14.687Z,11.60
2023-03-24T04:58:19.083Z,11.49
2023-03-24T05:03:21.263Z,11.32
2023-03-24T05:08:23.168Z,11.41
2023-03-24T05:13:25.710Z,11.26
2023-03-24T05:18:31.372Z,10.92
2023-03-24T05:23:33.266Z,10.95
2023-03-24T05:28:34.956Z,11.21
2023-03-24T05:33:37.212Z,11.30
2023-03-24T05:38:40.322Z,11.40
2023-03-24T05:43:42.093Z,11.78
2023-03-24T05:48:46.967Z,12.00
2023-03-24T05:53:55.894Z,12.25
2023-03-24T05:59:06.671Z,12.48
2023-03-24T06:04:31.280Z,12.75
2023-03-24T06:09:42.389Z,12.99
2023-03-24T06:14:46.322Z,13.09
2023-03-24T06:19:49.540Z,13.25
2023-03-24T06:24:58.716Z,13.35
2023-03-24T06:30:00.386Z,13.47
2023-03-24T06:35:02.714Z,13.49
2023-03-24T06:40:17.545Z,13.62
2023-03-24T06:45:29.556Z,13.76
2023-03-24T06:50:35.448Z,13.80
2023-03-24T06:55:42.912Z,14.12
2023-03-24T07:00:50.352Z,14.35
2023-03-24T07:06:22.937Z,14.37
2023-03-24T07:11:28.677Z,14.33
2023-03-24T07:16:33.811Z,14.36
2023-03-24T07:21:55.441Z,14.47
2023-03-24T07:27:09.908Z,14.83
2023-03-24T07:32:12.443Z,14.75
2023-03-24T07:37:14.133Z,14.79
2023-03-24T07:42:16.602Z,15.16
2023-03-24T07:47:45.487Z,15.10
2023-03-24T07:52:48.653Z,14.74
2023-03-24T07:57:52.307Z,14.57
2023-03-24T08:02:54.206Z,14.47
2023-03-24T08:08:15.326Z,14.32
2023-03-24T08:13:18.172Z,14.24
2023-03-24T08:18:21.244Z,14.40
2023-03-24T08:23:22.853Z,14.48
2023-03-24T08:28:24.478Z,14.44
2023-03-24T08:33:26.151Z,14.29
2023-03-24T08:38:32.636Z,14.17
2023-03-24T08:43:35.917Z,14.08
2023-03-24T08:48:40.602Z,13.95
2023-03-24T08:53:43.076Z,14.48
2023-03-24T08:58:48.291Z,14.95
2023-03-24T09:03:50.160Z,14.78
2023-03-24T09:08:51.803Z,14.53
2023-03-24T09:13:53.902Z,14.50
2023-03-24T09:18:55.619Z,14.70
2023-03-24T09:23:57.205Z,14.93
2023-03-24T09:28:58.837Z,15.20
2023-03-24T09:34:03.822Z,15.28
2023-03-24T09:39:06.202Z,15.11
2023-03-24T09:44:25.629Z,15.19
2023-03-24T09:49:36.424Z,15.13
2023-03-24T09:54:58.802Z,15.29
2023-03-24T10:00:00.603Z,15.49
2023-03-24T10:05:02.358Z,15.55
2023-03-24T10:10:16.333Z,15.66
2023-03-24T10:15:37.774Z,15.47
2023-03-24T10:21:07.512Z,14.93
2023-03-24T10:26:21.178Z,14.46
2023-03-24T10:31:29.503Z,14.36
2023-03-24T10:36:32.129Z,14.45
2023-03-24T10:41:36.423Z,14.52
2023-03-24T10:46:48.266Z,14.52
2023-03-24T10:52:01.284Z,14.39
2023-03-24T10:57:15.372Z,14.64
2023-03-24T11:02:23.212Z,14.82
2023-03-24T11:07:35.877Z,15.03
2023-03-24T11:12:40.648Z,15.14
2023-03-24T11:17:42.602Z,15.53
2023-03-24T11:23:15.368Z,15.23
2023-03-24T11:28:24.002Z,15.72
2023-03-24T11:33:36.222Z,15.36
2023-03-24T11:38:39.522Z,14.96
2023-03-24T11:43:41.192Z,15.04
2023-03-24T11:48:58.793Z,14.97
2023-03-24T11:54:05.076Z,14.51
2023-03-24T11:59:18.539Z,14.38
2023-03-24T12:04:26.306Z,14.52
2023-03-24T12:09:33.037Z,14.32
2023-03-24T12:14:53.265Z,14.05
2023-03-24T12:20:21.089Z,13.92
2023-03-24T12:25:53.230Z,13.67
2023-03-24T12:31:48.991Z,13.35
2023-03-24T12:36:56.613Z,13.53
2023-03-24T12:42:03.849Z,13.75
2023-03-24T12:47:21.918Z,14.13
2023-03-24T12:52:58.140Z,14.37
2023-03-24T12:58:41.757Z,14.19
2023-03-24T13:03:43.329Z,14.35
2023-03-24T13:08:57.623Z,14.02
2023-03-24T13:14:03.266Z,13.93
2023-03-24T13:19:23.570Z,13.53
2023-03-24T13:24:26.249Z,10.31
2023-03-24T13:29:38.422Z,9.42
2023-03-24T13:34:55.884Z,8.99
2023-03-24T13:40:00.791Z,9.11
2023-03-24T13:45:06.458Z,8.93
2023-03-24T13:50:13.374Z,8.93
2023-03-24T13:55:26.894Z,8.95
2023-03-24T14:00:29.019Z,8.94
2023-03-24T14:05:52.920Z,9.00
2023-03-24T14:10:54.523Z,9.00
2023-03-24T14:15:56.933Z,9.11
2023-03-24T14:21:03.794Z,9.09
2023-03-24T14:26:08.685Z,9.24
2023-03-24T14:31:15.421Z,9.29
2023-03-24T14:36:20.916Z,9.27
2023-03-24T14:41:31.330Z,9.31
2023-03-24T14:46:44.807Z,9.33
2023-03-24T14:52:08.220Z,9.38
2023-03-24T14:57:20.269Z,9.51
2023-03-24T15:02:28.386Z,9.52
2023-03-24T15:07:30.023Z,9.69
2023-03-24T15:12:32.247Z,10.18
2023-03-24T15:17:34.547Z,10.21
2023-03-24T15:22:42.804Z,10.49
2023-03-24T15:27:51.901Z,10.45
2023-03-24T15:32:54.947Z,10.35
2023-03-24T15:37:57.295Z,10.08
2023-03-24T15:43:01.620Z,9.92
2023-03-24T15:48:16.356Z,10.00
2023-03-24T15:53:17.901Z,9.92
2023-03-24T15:58:28.349Z,9.93
2023-03-24T16:03:31.848Z,9.99
2023-03-24T16:08:39.097Z,10.11
2023-03-24T16:13:44.375Z,10.23
2023-03-24T16:18:48.650Z,10.32
2023-03-24T16:23:52.067Z,10.54
2023-03-24T16:28:55.063Z,10.51
2023-03-24T16:33:58.171Z,10.31
2023-03-24T16:39:01.682Z,10.31
2023-03-24T16:44:03.815Z,10.17
2023-03-24T16:49:07.142Z,10.07
2023-03-24T16:54:09.299Z,9.99
2023-03-24T16:59:12.517Z,9.91
2023-03-24T17:04:20.513Z,9.86
2023-03-24T17:09:23.009Z,9.77
2023-03-24T17:14:24.783Z,9.73
2023-03-24T17:19:27.130Z,9.68
2023-03-24T17:24:32.739Z,9.54
2023-03-24T17:29:34.394Z,9.48
2023-03-24T17:34:37.842Z,9.42
2023-03-24T17:39:39.567Z,9.36
2023-03-24T17:44:41.186Z,9.27
2023-03-24T17:49:42.805Z,9.18
2023-03-24T17:54:45.924Z,9.10
2023-03-24T17:59:47.656Z,9.02
2023-03-24T18:04:49.362Z,8.95
2023-03-24T18:09:51.604Z,8.95
2023-03-24T18:14:56.030Z,8.95
2023-03-24T18:19:59.639Z,8.90
2023-03-24T18:25:06.419Z,8.85
2023-03-24T18:30:13.279Z,8.82
2023-03-24T18:35:17.818Z,8.82
2023-03-24T18:40:19.705Z,8.74
2023-03-24T18:45:21.380Z,8.67
2023-03-24T18:50:23.802Z,8.60
2023-03-24T18:55:26.760Z,8.49
2023-03-24T19:00:28.673Z,8.46
2023-03-24T19:05:32.761Z,8.44
2023-03-24T19:10:37.911Z,8.37
2023-03-24T19:15:40.320Z,8.18
2023-03-24T19:20:42.417Z,8.05
2023-03-24T19:25:44.219Z,7.94
2023-03-24T19:30:46.023Z,7.88
2023-03-24T19:35:49.459Z,7.91
2023-03-24T19:40:53.843Z,7.77
2023-03-24T19:45:56.307Z,7.78
2023-03-24T19:50:58.188Z,7.77
2023-03-24T19:56:01.264Z,7.82
2023-03-24T20:01:03.484Z,7.79
2023-03-24T20:06:09.117Z,7.71
2023-03-24T20:11:12.225Z,7.63
2023-03-24T20:16:14.209Z,7.55
2023-03-24T20:21:22.318Z,7.40
2023-03-24T20:26:24.233Z,7.40
2023-03-24T20:31:26.339Z,7.41
2023-03-24T20:36:28.165Z,7.45
2023-03-24T20:41:30.448Z,7.43
2023-03-24T20:46:32.664Z,7.41
2023-03-24T20:51:34.484Z,7.39
2023-03-24T20:56:36.730Z,7.33
2023-03-24T21:01:42.241Z,7.29
2023-03-24T21:06:44.493Z,7.55
2023-03-24T21:11:46.308Z,7.66
2023-03-24T21:16:48.335Z,7.61
2023-03-24T21:21:50.505Z,7.68
2023-03-24T21:26:55.537Z,7.81
2023-03-24T21:31:57.408Z,7.85
2023-03-24T21:37:01.328Z,7.89
2023-03-24T21:42:03.292Z,7.89
2023-03-24T21:47:05.165Z,7.95
2023-03-24T21:52:08.076Z,7.94
2023-03-24T21:57:10.106Z,8.08
2023-03-24T22:02:14.620Z,8.14
2023-03-24T22:07:22.490Z,8.14
2023-03-24T22:12:24.312Z,8.18
2023-03-24T22:17:26.390Z,8.34
2023-03-24T22:22:28.284Z,8.39
2023-03-24T22:27:30.822Z,8.26
2023-03-24T22:32:32.721Z,8.18
2023-03-24T22:37:35.895Z,8.16
2023-03-24T22:42:37.738Z,8.12
2023-03-24T22:47:39.587Z,8.09
2023-03-24T22:52:41.417Z,8.09
2023-03-24T22:57:43.237Z,8.00
2023-03-24T23:02:45.133Z,7.91
2023-03-24T23:07:47.535Z,7.88
2023-03-24T23:12:51.971Z,7.63
2023-03-24T23:17:54.107Z,7.62
2023-03-24T23:23:00.617Z,7.91
2023-03-24T23:28:02.475Z,7.91
2023-03-24T23:33:04.498Z,7.90
2023-03-24T23:38:06.796Z,7.84
2023-03-24T23:43:08.696Z,7.95
2023-03-24T23:48:10.568Z,7.79
2023-03-24T23:53:12.393Z,7.72
2023-03-24T23:58:14.540Z,7.70
